createdAt,value
2018-07-22T00:00:54.214Z,22.60
2018-07-22T00:03:29.575Z,22.60
2018-07-22T00:06:04.740Z,22.50
2018-07-22T00:08:39.758Z,22.40
2018-07-22T00:11:14.851Z,22.40
2018-07-22T00:13:50.107Z,22.40
2018-07-22T00:16:25.388Z,22.30
2018-07-22T00:21:35.566Z,22.30
2018-07-22T00:24:10.628Z,22.20
2018-07-22T00:26:45.766Z,22.20
2018-07-22T00:29:21.143Z,22.10
2018-07-22T00:31:56.451Z,22.00
2018-07-22T00:34:31.803Z,22.00
2018-07-22T00:37:06.978Z,21.90
2018-07-22T00:39:42.039Z,21.90
2018-07-22T00:42:17.326Z,21.90
2018-07-22T00:44:52.496Z,21.90
2018-07-22T00:47:27.892Z,21.80
2018-07-22T00:50:03.364Z,21.80
2018-07-22T00:52:39.138Z,21.70
2018-07-22T00:55:14.163Z,21.70
2018-07-22T00:57:49.379Z,21.70
2018-07-22T01:00:24.556Z,21.60
2018-07-22T01:03:00.343Z,21.60
2018-07-22T01:05:35.534Z,21.60
2018-07-22T01:08:10.967Z,21.60
2018-07-22T01:10:46.109Z,21.60
2018-07-22T01:13:21.346Z,21.60
2018-07-22T01:15:56.513Z,21.60
2018-07-22T01:18:31.911Z,21.60
2018-07-22T01:21:07.123Z,21.60
2018-07-22T01:26:17.401Z,21.60
2018-07-22T01:28:52.622Z,21.50
2018-07-22T01:31:28.024Z,21.50
2018-07-22T01:34:03.333Z,21.50
2018-07-22T01:36:38.532Z,21.30
2018-07-22T01:39:13.866Z,21.30
2018-07-22T01:41:49.147Z,21.20
2018-07-22T01:44:25.141Z,21.20
2018-07-22T01:47:01.604Z,21.20
2018-07-22T01:52:12.213Z,21.20
2018-07-22T01:54:47.469Z,21.30
2018-07-22T01:57:22.727Z,21.30
2018-07-22T01:59:58.249Z,21.10
2018-07-22T02:02:33.287Z,21.10
2018-07-22T02:05:08.538Z,21.00
2018-07-22T02:10:18.407Z,20.80
2018-07-22T02:12:53.760Z,20.80
2018-07-22T02:15:29.076Z,20.70
2018-07-22T02:18:04.260Z,20.70
2018-07-22T02:20:39.698Z,20.70
2018-07-22T02:23:15.083Z,20.70
2018-07-22T02:25:50.183Z,20.70
2018-07-22T02:28:25.420Z,20.60
2018-07-22T02:31:00.665Z,20.70
2018-07-22T02:33:35.824Z,20.70
2018-07-22T02:38:45.728Z,20.50
2018-07-22T02:41:20.953Z,20.50
2018-07-22T02:43:56.777Z,20.60
2018-07-22T02:46:32.148Z,20.60
2018-07-22T02:49:07.705Z,20.60
2018-07-22T02:51:42.792Z,20.50
2018-07-22T02:54:18.219Z,20.50
2018-07-22T02:56:53.360Z,20.40
2018-07-22T02:59:29.071Z,20.30
2018-07-22T03:02:04.145Z,20.30
2018-07-22T03:04:39.482Z,20.20
2018-07-22T03:07:14.568Z,20.30
2018-07-22T03:09:50.232Z,20.20
2018-07-22T03:12:25.315Z,20.30
2018-07-22T03:15:00.623Z,20.10
2018-07-22T03:17:35.845Z,20.10
2018-07-22T03:20:11.197Z,20.10
2018-07-22T03:22:46.463Z,20.10
2018-07-22T03:25:21.629Z,20.20
2018-07-22T03:27:56.892Z,20.10
2018-07-22T03:30:32.399Z,20.10
2018-07-22T03:33:07.923Z,20.10
2018-07-22T03:35:43.105Z,20.00
2018-07-22T03:38:18.157Z,19.90
2018-07-22T03:40:53.255Z,19.80
2018-07-22T03:43:28.591Z,19.80
2018-07-22T03:46:03.947Z,19.80
2018-07-22T03:48:38.982Z,19.70
2018-07-22T03:51:14.563Z,19.80
2018-07-22T03:53:49.604Z,19.80
2018-07-22T03:56:24.842Z,19.80
2018-07-22T03:59:00.044Z,19.90
2018-07-22T04:01:35.495Z,19.80
2018-07-22T04:04:10.520Z,19.70
2018-07-22T04:06:45.820Z,19.60
2018-07-22T04:09:21.128Z,19.60
2018-07-22T04:11:56.229Z,19.70
2018-07-22T04:14:31.585Z,19.70
2018-07-22T04:17:07.247Z,19.60
2018-07-22T04:19:42.421Z,19.60
2018-07-22T04:22:17.595Z,19.50
2018-07-22T04:24:52.769Z,19.30
2018-07-22T04:27:28.076Z,19.20
2018-07-22T04:30:03.316Z,19.20
2018-07-22T04:32:38.633Z,19.20
2018-07-22T04:37:48.787Z,19.30
2018-07-22T04:40:24.190Z,19.30
2018-07-22T04:42:59.468Z,19.40
2018-07-22T04:45:34.687Z,19.40
2018-07-22T04:48:09.761Z,19.40
2018-07-22T04:50:45.066Z,19.40
2018-07-22T04:53:20.247Z,19.40
2018-07-22T04:55:55.511Z,19.40
2018-07-22T04:58:30.683Z,19.40
2018-07-22T05:01:05.886Z,19.40
2018-07-22T05:03:40.972Z,19.40
2018-07-22T05:06:16.100Z,19.30
2018-07-22T05:09:09.919Z,19.30
2018-07-22T05:11:45.021Z,19.30
2018-07-22T05:14:20.547Z,19.30
2018-07-22T05:16:55.743Z,19.40
2018-07-22T05:19:31.576Z,19.50
2018-07-22T05:22:06.841Z,19.60
2018-07-22T05:24:42.164Z,19.50
2018-07-22T05:27:17.312Z,19.50
2018-07-22T05:29:52.421Z,19.50
2018-07-22T05:32:27.584Z,19.50
2018-07-22T05:35:02.851Z,19.60
2018-07-22T05:37:38.066Z,19.60
2018-07-22T05:40:13.522Z,19.60
2018-07-22T05:42:48.780Z,19.60
2018-07-22T05:47:58.822Z,19.80
2018-07-22T05:50:34.167Z,19.80
2018-07-22T05:53:09.624Z,19.90
2018-07-22T05:55:45.091Z,20.00
2018-07-22T05:58:20.214Z,20.00
2018-07-22T06:00:55.874Z,20.00
2018-07-22T06:03:31.268Z,20.00
2018-07-22T06:06:06.680Z,20.10
2018-07-22T06:08:42.143Z,20.10
2018-07-22T06:11:17.465Z,20.20
2018-07-22T06:13:52.592Z,20.20
2018-07-22T06:16:27.789Z,20.20
2018-07-22T06:19:02.983Z,20.20
2018-07-22T06:21:38.243Z,20.20
2018-07-22T06:24:13.356Z,20.30
2018-07-22T06:26:48.566Z,20.30
2018-07-22T06:29:24.210Z,20.40
2018-07-22T06:31:59.260Z,20.40
2018-07-22T06:34:34.564Z,20.40
2018-07-22T06:37:09.882Z,20.40
2018-07-22T06:39:45.124Z,20.40
2018-07-22T06:42:20.516Z,20.50
2018-07-22T06:44:55.657Z,20.60
2018-07-22T06:47:30.988Z,20.60
2018-07-22T06:50:06.511Z,20.60
2018-07-22T06:52:41.758Z,20.70
2018-07-22T06:55:16.906Z,20.80
2018-07-22T06:57:52.187Z,21.00
2018-07-22T07:00:27.540Z,21.00
2018-07-22T07:03:03.101Z,21.00
2018-07-22T07:05:38.175Z,21.00
2018-07-22T07:08:13.790Z,21.10
2018-07-22T07:10:48.950Z,21.10
2018-07-22T07:13:24.594Z,21.20
2018-07-22T07:15:59.805Z,21.30
2018-07-22T07:18:34.995Z,21.40
2018-07-22T07:21:10.520Z,21.50
2018-07-22T07:23:45.986Z,21.60
2018-07-22T07:26:22.004Z,21.70
2018-07-22T07:28:57.638Z,21.80
2018-07-22T07:34:08.415Z,22.00
2018-07-22T07:37:09.428Z,21.90
2018-07-22T07:39:44.725Z,21.90
2018-07-22T07:42:21.225Z,22.10
2018-07-22T07:44:56.780Z,22.20
2018-07-22T07:47:32.604Z,22.30
2018-07-22T07:50:08.036Z,22.30
2018-07-22T07:52:43.895Z,22.20
2018-07-22T07:55:19.900Z,22.30
2018-07-22T07:57:55.240Z,22.50
2018-07-22T08:00:31.331Z,22.60
2018-07-22T08:03:07.593Z,22.80
2018-07-22T08:05:43.253Z,22.80
2018-07-22T08:08:19.146Z,22.90
2018-07-22T08:10:54.626Z,23.00
2018-07-22T08:13:34.789Z,23.10
2018-07-22T08:16:10.099Z,23.20
2018-07-22T08:18:46.394Z,23.30
2018-07-22T08:21:22.924Z,23.50
2018-07-22T08:23:57.883Z,23.50
2018-07-22T08:26:33.416Z,23.60
2018-07-22T08:29:33.501Z,23.70
2018-07-22T08:32:13.388Z,23.70
2018-07-22T08:35:29.708Z,23.70
2018-07-22T08:38:05.354Z,23.80
2018-07-22T08:40:41.824Z,23.90
2018-07-22T08:43:18.915Z,24.10
2018-07-22T08:45:54.601Z,24.20
2018-07-22T08:48:30.585Z,24.30
2018-07-22T08:51:06.763Z,24.50
2018-07-22T08:53:42.690Z,24.60
2018-07-22T08:56:19.397Z,24.70
2018-07-22T08:58:56.067Z,24.70
2018-07-22T09:01:32.236Z,24.80
2018-07-22T09:04:07.407Z,24.80
2018-07-22T09:06:42.865Z,24.90
2018-07-22T09:09:17.910Z,25.00
2018-07-22T09:11:53.278Z,25.10
2018-07-22T09:14:28.353Z,25.10
2018-07-22T09:17:03.858Z,25.20
2018-07-22T09:19:39.293Z,25.20
2018-07-22T09:22:14.842Z,25.30
2018-07-22T09:24:49.899Z,25.30
2018-07-22T09:27:25.187Z,25.40
2018-07-22T09:30:00.428Z,25.60
2018-07-22T09:32:35.578Z,25.80
2018-07-22T09:35:10.334Z,25.90
2018-07-22T09:37:46.080Z,26.20
2018-07-22T09:40:21.803Z,26.10
2018-07-22T09:42:57.273Z,26.10
2018-07-22T09:45:32.654Z,26.10
2018-07-22T09:48:08.322Z,26.20
2018-07-22T09:50:43.850Z,26.40
2018-07-22T09:53:19.956Z,26.50
2018-07-22T09:55:55.289Z,26.50
2018-07-22T09:58:30.679Z,26.80
2018-07-22T10:01:05.984Z,26.90
2018-07-22T10:03:41.933Z,26.90
2018-07-22T10:06:17.284Z,27.00
2018-07-22T10:08:52.534Z,27.10
2018-07-22T10:11:27.963Z,27.10
2018-07-22T10:14:03.187Z,27.10
2018-07-22T10:16:38.302Z,27.30
2018-07-22T10:19:13.487Z,27.20
2018-07-22T10:21:48.896Z,27.30
2018-07-22T10:24:24.283Z,27.10
2018-07-22T10:27:00.003Z,27.20
2018-07-22T10:29:35.174Z,27.20
2018-07-22T10:32:10.659Z,27.20
2018-07-22T10:34:45.954Z,27.40
2018-07-22T10:37:21.514Z,27.50
2018-07-22T10:39:57.247Z,27.80
2018-07-22T10:42:32.439Z,27.80
2018-07-22T10:45:08.061Z,27.60
2018-07-22T10:47:43.376Z,27.70
2018-07-22T10:50:18.611Z,27.90
2018-07-22T10:55:28.881Z,28.20
2018-07-22T10:58:04.013Z,28.10
2018-07-22T11:00:39.255Z,28.20
2018-07-22T11:03:14.602Z,28.30
2018-07-22T11:05:50.107Z,28.20
2018-07-22T11:08:25.812Z,28.30
2018-07-22T11:11:01.186Z,28.30
2018-07-22T11:13:37.467Z,28.30
2018-07-22T11:16:12.523Z,28.40
2018-07-22T11:18:47.792Z,28.40
2018-07-22T11:21:23.200Z,28.50
2018-07-22T11:23:58.648Z,28.60
2018-07-22T11:26:34.137Z,28.60
2018-07-22T11:31:44.662Z,28.70
2018-07-22T11:34:19.932Z,28.80
2018-07-22T11:36:55.434Z,28.90
2018-07-22T11:39:30.724Z,29.10
2018-07-22T11:42:05.900Z,29.20
2018-07-22T11:44:41.091Z,29.00
2018-07-22T11:47:16.497Z,28.80
2018-07-22T11:49:51.723Z,28.60
2018-07-22T11:52:26.956Z,28.50
2018-07-22T11:55:02.565Z,28.20
2018-07-22T11:57:37.771Z,27.90
2018-07-22T12:00:13.174Z,28.00
2018-07-22T12:02:49.137Z,28.20
2018-07-22T12:05:24.290Z,28.10
2018-07-22T12:07:59.691Z,28.20
2018-07-22T12:10:34.971Z,28.60
2018-07-22T12:13:10.112Z,28.80
2018-07-22T12:15:45.247Z,29.10
2018-07-22T12:18:20.703Z,28.90
2018-07-22T12:20:57.063Z,28.90
2018-07-22T12:26:07.367Z,28.40
2018-07-22T12:28:42.427Z,28.20
2018-07-22T12:31:17.708Z,27.90
2018-07-22T12:33:53.053Z,27.80
2018-07-22T12:36:28.174Z,27.80
2018-07-22T12:39:05.643Z,27.90
2018-07-22T12:41:41.390Z,28.30
2018-07-22T12:44:16.615Z,28.80
2018-07-22T12:46:51.798Z,29.20
2018-07-22T12:49:27.604Z,29.20
2018-07-22T12:52:03.150Z,29.00
2018-07-22T12:54:38.339Z,29.00
2018-07-22T12:57:13.820Z,29.00
2018-07-22T13:00:23.316Z,29.30
2018-07-22T13:02:58.484Z,29.70
2018-07-22T13:05:34.095Z,30.00
2018-07-22T13:08:09.390Z,30.20
2018-07-22T13:10:44.786Z,30.50
2018-07-22T13:13:20.644Z,30.50
2018-07-22T13:15:56.797Z,30.80
2018-07-22T13:21:06.760Z,31.00
2018-07-22T13:23:42.111Z,31.20
2018-07-22T13:26:17.422Z,31.40
2018-07-22T13:28:53.292Z,31.40
2018-07-22T13:31:28.525Z,31.20
2018-07-22T13:34:04.192Z,31.20
2018-07-22T13:36:39.515Z,31.50
2018-07-22T13:39:14.843Z,31.60
2018-07-22T13:41:50.041Z,31.70
2018-07-22T13:44:25.552Z,31.50
2018-07-22T13:47:00.689Z,31.40
2018-07-22T13:49:36.125Z,31.60
2018-07-22T13:52:11.423Z,31.80
2018-07-22T13:54:46.773Z,31.60
2018-07-22T13:57:22.019Z,31.80
2018-07-22T13:59:57.328Z,31.90
2018-07-22T14:02:32.483Z,31.70
2018-07-22T14:05:07.888Z,31.70
2018-07-22T14:07:43.142Z,31.50
2018-07-22T14:10:18.435Z,31.70
2018-07-22T14:12:54.244Z,31.30
2018-07-22T14:15:29.599Z,30.50
2018-07-22T14:18:05.011Z,30.30
2018-07-22T14:20:40.965Z,30.00
2018-07-22T14:23:16.429Z,29.70
2018-07-22T14:25:51.571Z,29.40
2018-07-22T14:28:26.967Z,29.10
2018-07-22T14:31:02.158Z,29.00
2018-07-22T14:33:37.588Z,28.60
2018-07-22T14:36:17.945Z,28.50
2018-07-22T14:38:53.043Z,28.40
2018-07-22T14:41:28.427Z,28.30
2018-07-22T14:44:03.702Z,28.20
2018-07-22T14:46:38.924Z,28.10
2018-07-22T14:49:14.123Z,28.00
2018-07-22T14:51:49.699Z,28.00
2018-07-22T14:54:25.175Z,27.80
2018-07-22T14:57:00.663Z,27.90
2018-07-22T14:59:36.164Z,27.80
2018-07-22T15:02:11.525Z,27.80
2018-07-22T15:04:47.819Z,27.80
2018-07-22T15:07:23.265Z,27.80
2018-07-22T15:09:58.624Z,27.80
2018-07-22T15:12:33.862Z,27.80
2018-07-22T15:15:09.223Z,27.90
2018-07-22T15:20:19.086Z,27.90
2018-07-22T15:22:54.294Z,27.90
2018-07-22T15:25:30.064Z,27.90
2018-07-22T15:28:05.411Z,27.80
2018-07-22T15:30:40.823Z,27.80
2018-07-22T15:33:16.061Z,27.90
2018-07-22T15:35:51.630Z,27.90
2018-07-22T15:38:27.088Z,27.80
2018-07-22T15:41:02.989Z,27.80
2018-07-22T15:43:38.461Z,27.80
2018-07-22T15:46:14.095Z,27.80
2018-07-22T15:48:49.647Z,27.80
2018-07-22T15:51:24.999Z,27.90
2018-07-22T15:54:01.139Z,28.10
2018-07-22T15:56:36.318Z,28.40
2018-07-22T15:59:12.782Z,28.50
2018-07-22T16:01:48.343Z,28.60
2018-07-22T16:04:23.872Z,28.70
2018-07-22T16:06:59.809Z,28.60
2018-07-22T16:09:35.167Z,28.60
2018-07-22T16:12:10.971Z,28.50
2018-07-22T16:14:46.391Z,28.50
2018-07-22T16:17:21.843Z,28.50
2018-07-22T16:19:57.159Z,28.40
2018-07-22T16:22:32.485Z,28.30
2018-07-22T16:25:07.808Z,28.20
2018-07-22T16:27:43.104Z,28.10
2018-07-22T16:30:18.532Z,28.10
2018-07-22T16:35:29.215Z,28.00
2018-07-22T16:38:04.788Z,27.90
2018-07-22T16:40:39.946Z,27.90
2018-07-22T16:43:15.657Z,27.80
2018-07-22T16:45:51.370Z,27.80
2018-07-22T16:48:27.323Z,27.80
2018-07-22T16:51:02.743Z,27.70
2018-07-22T16:53:38.025Z,27.70
2018-07-22T16:56:13.492Z,27.70
2018-07-22T16:58:48.907Z,27.70
2018-07-22T17:01:24.048Z,27.60
2018-07-22T17:03:59.515Z,27.50
2018-07-22T17:06:35.030Z,27.60
2018-07-22T17:11:46.651Z,27.50
2018-07-22T17:14:21.858Z,27.50
2018-07-22T17:16:57.063Z,27.50
2018-07-22T17:19:32.187Z,27.50
2018-07-22T17:22:07.822Z,27.50
2018-07-22T17:24:43.174Z,27.50
2018-07-22T17:27:19.112Z,27.50
2018-07-22T17:29:54.520Z,27.50
2018-07-22T17:32:30.490Z,27.50
2018-07-22T17:35:05.806Z,27.40
2018-07-22T17:37:41.410Z,27.40
2018-07-22T17:40:17.160Z,27.40
2018-07-22T17:42:52.742Z,27.40
2018-07-22T17:45:27.790Z,27.40
2018-07-22T17:48:03.279Z,27.40
2018-07-22T17:50:38.680Z,27.40
2018-07-22T17:53:13.831Z,27.30
2018-07-22T17:55:49.046Z,27.40
2018-07-22T17:58:24.556Z,27.40
2018-07-22T18:01:01.216Z,27.40
2018-07-22T18:03:36.551Z,27.40
2018-07-22T18:06:11.867Z,27.40
2018-07-22T18:08:47.162Z,27.50
2018-07-22T18:11:22.735Z,27.50
2018-07-22T18:13:58.050Z,27.50
2018-07-22T18:16:33.228Z,27.50
2018-07-22T18:19:08.460Z,27.50
2018-07-22T18:21:43.539Z,27.50
2018-07-22T18:24:18.869Z,27.40
2018-07-22T18:26:54.148Z,27.40
2018-07-22T18:29:29.358Z,27.40
2018-07-22T18:32:04.869Z,27.40
2018-07-22T18:34:40.124Z,27.40
2018-07-22T18:37:15.573Z,27.40
2018-07-22T18:39:51.223Z,27.30
2018-07-22T18:42:26.948Z,27.30
2018-07-22T18:45:02.593Z,27.20
2018-07-22T18:47:38.483Z,27.10
2018-07-22T18:50:14.190Z,27.10
2018-07-22T18:52:49.770Z,27.00
2018-07-22T18:55:25.918Z,26.90
2018-07-22T18:58:01.793Z,26.90
2018-07-22T19:00:37.418Z,26.80
2018-07-22T19:03:13.123Z,26.80
2018-07-22T19:05:48.802Z,26.80
2018-07-22T19:08:24.649Z,26.70
2018-07-22T19:11:00.226Z,26.70
2018-07-22T19:13:35.844Z,26.60
2018-07-22T19:16:11.800Z,26.60
2018-07-22T19:18:47.449Z,26.50
2018-07-22T19:21:23.530Z,26.50
2018-07-22T19:23:59.184Z,26.40
2018-07-22T19:29:10.072Z,26.30
2018-07-22T19:31:45.796Z,26.40
2018-07-22T19:34:21.554Z,26.40
2018-07-22T19:36:57.097Z,26.40
2018-07-22T19:39:33.467Z,26.30
2018-07-22T19:42:09.006Z,26.20
2018-07-22T19:44:44.654Z,26.20
2018-07-22T19:47:20.306Z,26.10
2018-07-22T19:49:56.139Z,26.00
2018-07-22T19:52:31.805Z,26.00
2018-07-22T19:55:07.401Z,25.90
2018-07-22T19:57:43.062Z,25.80
2018-07-22T20:00:18.751Z,25.70
2018-07-22T20:02:54.301Z,25.70
2018-07-22T20:05:36.090Z,25.60
2018-07-22T20:08:11.544Z,25.60
2018-07-22T20:10:47.064Z,25.50
2018-07-22T20:13:22.730Z,25.50
2018-07-22T20:16:14.975Z,25.40
2018-07-22T20:18:50.513Z,25.40
2018-07-22T20:21:26.368Z,25.30
2018-07-22T20:24:02.356Z,25.20
2018-07-22T20:26:37.830Z,25.20
2018-07-22T20:29:13.624Z,25.10
2018-07-22T20:31:49.524Z,25.10
2018-07-22T20:34:24.874Z,25.10
2018-07-22T20:37:00.773Z,25.00
2018-07-22T20:39:36.068Z,24.90
2018-07-22T20:42:11.821Z,24.90
2018-07-22T20:44:47.090Z,24.90
2018-07-22T20:47:22.521Z,24.80
2018-07-22T20:49:57.927Z,24.80
2018-07-22T20:52:33.466Z,24.80
2018-07-22T20:55:08.626Z,24.70
2018-07-22T20:57:43.885Z,24.70
2018-07-22T21:00:19.063Z,24.60
2018-07-22T21:02:54.276Z,24.60
2018-07-22T21:05:29.664Z,24.60
2018-07-22T21:08:04.933Z,24.60
2018-07-22T21:10:40.016Z,24.50
2018-07-22T21:13:18.682Z,24.50
2018-07-22T21:15:53.915Z,24.50
2018-07-22T21:18:29.055Z,24.40
2018-07-22T21:21:05.170Z,24.40
2018-07-22T21:23:40.148Z,24.30
2018-07-22T21:26:15.363Z,24.30
2018-07-22T21:28:50.609Z,24.20
2018-07-22T21:31:26.085Z,24.20
2018-07-22T21:34:01.275Z,24.20
2018-07-22T21:36:36.617Z,24.10
2018-07-22T21:39:11.783Z,24.10
2018-07-22T21:41:46.857Z,24.10
2018-07-22T21:44:22.058Z,24.10
2018-07-22T21:46:57.355Z,24.00
2018-07-22T21:49:32.713Z,23.90
2018-07-22T21:52:08.224Z,23.90
2018-07-22T21:54:43.727Z,23.80
2018-07-22T21:57:19.309Z,23.80
2018-07-22T21:59:54.351Z,23.70
2018-07-22T22:02:33.499Z,23.80
2018-07-22T22:05:08.879Z,23.70
2018-07-22T22:07:44.078Z,23.70
2018-07-22T22:10:19.387Z,23.70
2018-07-22T22:12:55.247Z,23.70
2018-07-22T22:15:31.422Z,23.70
2018-07-22T22:18:06.853Z,23.70
2018-07-22T22:20:42.083Z,23.60
2018-07-22T22:23:17.249Z,23.60
2018-07-22T22:25:52.565Z,23.60
2018-07-22T22:28:28.258Z,23.60
2018-07-22T22:31:03.486Z,23.50
2018-07-22T22:33:38.700Z,23.50
2018-07-22T22:36:14.148Z,23.50
2018-07-22T22:38:49.395Z,23.40
2018-07-22T22:41:24.567Z,23.40
2018-07-22T22:43:59.603Z,23.40
2018-07-22T22:46:34.807Z,23.40
2018-07-22T22:49:10.181Z,23.30
2018-07-22T22:51:45.592Z,23.30
2018-07-22T22:54:20.764Z,23.20
2018-07-22T22:56:56.078Z,23.10
2018-07-22T22:59:31.200Z,23.10
2018-07-22T23:02:06.534Z,23.10
2018-07-22T23:04:41.947Z,23.10
2018-07-22T23:07:17.107Z,23.00
2018-07-22T23:09:52.411Z,23.00
2018-07-22T23:12:27.479Z,23.00
2018-07-22T23:15:02.640Z,22.90
2018-07-22T23:17:37.954Z,22.90
2018-07-22T23:20:12.992Z,22.80
2018-07-22T23:22:48.784Z,22.80
2018-07-22T23:25:23.975Z,22.80
2018-07-22T23:27:59.035Z,22.80
2018-07-22T23:30:34.315Z,22.80
2018-07-22T23:33:09.614Z,22.70
2018-07-22T23:35:45.017Z,22.70
2018-07-22T23:38:20.242Z,22.70
2018-07-22T23:40:55.540Z,22.70
2018-07-22T23:43:31.111Z,22.60
2018-07-22T23:46:06.705Z,22.70
2018-07-22T23:48:42.052Z,22.60
2018-07-22T23:51:17.366Z,22.50
2018-07-22T23:53:52.684Z,22.50
2018-07-22T23:56:27.983Z,22.40
2018-07-22T23:59:03.335Z,22.50
